sensor_id;sensor_type;location;lat;lon;timestamp;pressure;altitude;pressure_sealevel;temperature;humidity
49178;BME280;35016;55.674;37.468;2024-03-02T00:00:16;100287.34;;;4.52;64.85
49178;BME280;35016;55.674;37.468;2024-03-02T00:02:44;100291.69;;;4.53;65.16
49178;BME280;35016;55.674;37.468;2024-03-02T00:05:13;100298.06;;;4.52;64.64
49178;BME280;35016;55.674;37.468;2024-03-02T00:07:45;100289.59;;;4.49;64.97
49178;BME280;35016;55.674;37.468;2024-03-02T00:10:16;100294.13;;;4.48;64.83
49178;BME280;35016;55.674;37.468;2024-03-02T00:12:47;100287.50;;;4.44;64.65
49178;BME280;35016;55.674;37.468;2024-03-02T00:18:26;100283.81;;;4.45;65.04
49178;BME280;35016;55.674;37.468;2024-03-02T00:20:55;100272.84;;;4.40;64.60
49178;BME280;35016;55.674;37.468;2024-03-02T00:23:27;100277.59;;;4.45;64.58
49178;BME280;35016;55.674;37.468;2024-03-02T00:25:56;100274.91;;;4.45;64.47
49178;BME280;35016;55.674;37.468;2024-03-02T00:28:29;100276.34;;;4.41;65.18
49178;BME280;35016;55.674;37.468;2024-03-02T00:31:07;100275.94;;;4.44;64.53
49178;BME280;35016;55.674;37.468;2024-03-02T00:33:36;100279.47;;;4.44;64.84
49178;BME280;35016;55.674;37.468;2024-03-02T00:36:05;100287.09;;;4.41;64.71
49178;BME280;35016;55.674;37.468;2024-03-02T00:38:34;100279.03;;;4.41;64.86
49178;BME280;35016;55.674;37.468;2024-03-02T00:41:07;100279.25;;;4.39;64.50
49178;BME280;35016;55.674;37.468;2024-03-02T00:46:15;100286.47;;;4.39;64.89
49178;BME280;35016;55.674;37.468;2024-03-02T00:48:57;100285.63;;;4.38;64.48
49178;BME280;35016;55.674;37.468;2024-03-02T00:51:28;100283.53;;;4.33;64.97
49178;BME280;35016;55.674;37.468;2024-03-02T00:54:01;100290.19;;;4.38;64.45
49178;BME280;35016;55.674;37.468;2024-03-02T00:56:32;100284.19;;;4.35;64.52
49178;BME280;35016;55.674;37.468;2024-03-02T00:59:00;100279.19;;;4.32;64.43
49178;BME280;35016;55.674;37.468;2024-03-02T01:01:27;100285.00;;;4.36;64.60
49178;BME280;35016;55.674;37.468;2024-03-02T01:03:54;100287.69;;;4.36;64.77
49178;BME280;35016;55.674;37.468;2024-03-02T01:06:22;100289.34;;;4.37;64.96
49178;BME280;35016;55.674;37.468;2024-03-02T01:08:49;100293.91;;;4.37;64.76
49178;BME280;35016;55.674;37.468;2024-03-02T01:11:20;100295.56;;;4.38;64.69
49178;BME280;35016;55.674;37.468;2024-03-02T01:13:51;100292.03;;;4.37;64.22
49178;BME280;35016;55.674;37.468;2024-03-02T01:16:19;100292.81;;;4.31;64.54
49178;BME280;35016;55.674;37.468;2024-03-02T01:18:47;100304.84;;;4.35;64.57
49178;BME280;35016;55.674;37.468;2024-03-02T01:21:14;100309.38;;;4.34;64.57
49178;BME280;35016;55.674;37.468;2024-03-02T01:23:42;100305.66;;;4.35;64.91
49178;BME280;35016;55.674;37.468;2024-03-02T01:26:10;100307.53;;;4.35;64.59
49178;BME280;35016;55.674;37.468;2024-03-02T01:28:37;100302.16;;;4.35;64.80
49178;BME280;35016;55.674;37.468;2024-03-02T01:31:04;100301.94;;;4.37;64.41
49178;BME280;35016;55.674;37.468;2024-03-02T01:33:31;100304.00;;;4.34;64.67
49178;BME280;35016;55.674;37.468;2024-03-02T01:35:58;100293.63;;;4.31;64.39
49178;BME280;35016;55.674;37.468;2024-03-02T01:38:26;100295.94;;;4.34;64.60
49178;BME280;35016;55.674;37.468;2024-03-02T01:40:55;100306.03;;;4.32;64.62
49178;BME280;35016;55.674;37.468;2024-03-02T01:43:23;100306.44;;;4.29;64.90
49178;BME280;35016;55.674;37.468;2024-03-02T01:45:51;100303.75;;;4.29;64.63
49178;BME280;35016;55.674;37.468;2024-03-02T01:48:18;100305.41;;;4.30;64.58
49178;BME280;35016;55.674;37.468;2024-03-02T01:50:46;100299.00;;;4.31;64.37
49178;BME280;35016;55.674;37.468;2024-03-02T01:53:14;100297.81;;;4.34;64.41
49178;BME280;35016;55.674;37.468;2024-03-02T01:55:41;100300.50;;;4.34;64.51
49178;BME280;35016;55.674;37.468;2024-03-02T01:58:08;100304.84;;;4.35;64.81
49178;BME280;35016;55.674;37.468;2024-03-02T02:00:35;100306.50;;;4.36;64.86
49178;BME280;35016;55.674;37.468;2024-03-02T02:03:02;100302.97;;;4.35;64.94
49178;BME280;35016;55.674;37.468;2024-03-02T02:05:29;100301.69;;;4.31;64.54
49178;BME280;35016;55.674;37.468;2024-03-02T02:07:58;100310.22;;;4.35;64.49
49178;BME280;35016;55.674;37.468;2024-03-02T02:10:26;100296.72;;;4.28;64.31
49178;BME280;35016;55.674;37.468;2024-03-02T02:12:53;100300.03;;;4.30;64.64
49178;BME280;35016;55.674;37.468;2024-03-02T02:15:30;100304.00;;;4.34;65.13
49178;BME280;35016;55.674;37.468;2024-03-02T02:17:58;100302.91;;;4.29;65.03
49178;BME280;35016;55.674;37.468;2024-03-02T02:20:46;100305.41;;;4.30;64.98
49178;BME280;35016;55.674;37.468;2024-03-02T02:23:13;100310.78;;;4.30;64.49
49178;BME280;35016;55.674;37.468;2024-03-02T02:25:40;100303.13;;;4.27;65.22
49178;BME280;35016;55.674;37.468;2024-03-02T02:28:07;100306.63;;;4.28;64.66
49178;BME280;35016;55.674;37.468;2024-03-02T02:30:35;100295.69;;;4.29;64.83
49178;BME280;35016;55.674;37.468;2024-03-02T02:33:02;100307.25;;;4.30;65.23
49178;BME280;35016;55.674;37.468;2024-03-02T02:35:29;100306.84;;;4.26;64.82
49178;BME280;35016;55.674;37.468;2024-03-02T02:37:57;100306.44;;;4.29;64.60
49178;BME280;35016;55.674;37.468;2024-03-02T02:40:26;100294.84;;;4.22;64.67
49178;BME280;35016;55.674;37.468;2024-03-02T02:42:53;100303.53;;;4.24;64.93
49178;BME280;35016;55.674;37.468;2024-03-02T02:45:20;100313.84;;;4.27;64.51
49178;BME280;35016;55.674;37.468;2024-03-02T02:47:48;100302.50;;;4.25;64.95
49178;BME280;35016;55.674;37.468;2024-03-02T02:50:15;100314.47;;;4.23;64.80
49178;BME280;35016;55.674;37.468;2024-03-02T02:52:42;100313.00;;;4.20;65.10
49178;BME280;35016;55.674;37.468;2024-03-02T02:55:12;100313.00;;;4.20;64.95
49178;BME280;35016;55.674;37.468;2024-03-02T02:57:40;100311.16;;;4.21;64.97
49178;BME280;35016;55.674;37.468;2024-03-02T03:00:14;100315.47;;;4.22;64.67
49178;BME280;35016;55.674;37.468;2024-03-02T03:02:47;100305.16;;;4.19;64.83
49178;BME280;35016;55.674;37.468;2024-03-02T03:05:16;100310.72;;;4.17;64.83
49178;BME280;35016;55.674;37.468;2024-03-02T03:07:44;100308.66;;;4.19;64.85
49178;BME280;35016;55.674;37.468;2024-03-02T03:10:12;100315.25;;;4.17;65.01
49178;BME280;35016;55.674;37.468;2024-03-02T03:12:42;100315.88;;;4.19;64.86
49178;BME280;35016;55.674;37.468;2024-03-02T03:15:10;100308.03;;;4.17;64.97
49178;BME280;35016;55.674;37.468;2024-03-02T03:17:41;100318.16;;;4.22;65.32
49178;BME280;35016;55.674;37.468;2024-03-02T03:20:09;100318.16;;;4.22;64.84
49178;BME280;35016;55.674;37.468;2024-03-02T03:22:42;100316.13;;;4.24;65.07
49178;BME280;35016;55.674;37.468;2024-03-02T03:25:10;100318.78;;;4.24;64.45
49178;BME280;35016;55.674;37.468;2024-03-02T03:27:37;100318.38;;;4.20;64.94
49178;BME280;35016;55.674;37.468;2024-03-02T03:30:05;100316.31;;;4.22;64.78
49178;BME280;35016;55.674;37.468;2024-03-02T03:32:34;100316.31;;;4.22;64.67
49178;BME280;35016;55.674;37.468;2024-03-02T03:35:03;100309.09;;;4.23;64.83
49178;BME280;35016;55.674;37.468;2024-03-02T03:37:31;100305.97;;;4.19;65.06
49178;BME280;35016;55.674;37.468;2024-03-02T03:40:02;100310.94;;;4.22;65.08
49178;BME280;35016;55.674;37.468;2024-03-02T03:42:34;100309.50;;;4.26;64.98
49178;BME280;35016;55.674;37.468;2024-03-02T03:45:01;100304.34;;;4.25;64.88
49178;BME280;35016;55.674;37.468;2024-03-02T03:47:33;100309.31;;;4.28;64.54
49178;BME280;35016;55.674;37.468;2024-03-02T03:50:01;100304.53;;;4.23;64.79
49178;BME280;35016;55.674;37.468;2024-03-02T03:52:29;100305.81;;;4.27;64.48
49178;BME280;35016;55.674;37.468;2024-03-02T03:54:56;100303.13;;;4.27;64.94
49178;BME280;35016;55.674;37.468;2024-03-02T03:57:24;100299.81;;;4.25;64.95
49178;BME280;35016;55.674;37.468;2024-03-02T03:59:51;100300.44;;;4.27;64.85
49178;BME280;35016;55.674;37.468;2024-03-02T04:02:18;100300.00;;;4.24;64.94
49178;BME280;35016;55.674;37.468;2024-03-02T04:04:45;100295.03;;;4.21;64.93
49178;BME280;35016;55.674;37.468;2024-03-02T04:07:13;100294.41;;;4.19;65.06
49178;BME280;35016;55.674;37.468;2024-03-02T04:09:40;100297.72;;;4.21;65.01
49178;BME280;35016;55.674;37.468;2024-03-02T04:12:07;100297.72;;;4.21;64.86
49178;BME280;35016;55.674;37.468;2024-03-02T04:14:34;100300.41;;;4.21;65.10
49178;BME280;35016;55.674;37.468;2024-03-02T04:17:01;100303.50;;;4.18;64.47
49178;BME280;35016;55.674;37.468;2024-03-02T04:19:29;100309.28;;;4.21;64.58
49178;BME280;35016;55.674;37.468;2024-03-02T04:21:56;100303.91;;;4.21;65.03
49178;BME280;35016;55.674;37.468;2024-03-02T04:24:27;100314.03;;;4.19;64.92
49178;BME280;35016;55.674;37.468;2024-03-02T04:26:54;100303.91;;;4.21;64.48
49178;BME280;35016;55.674;37.468;2024-03-02T04:29:22;100309.28;;;4.21;64.72
49178;BME280;35016;55.674;37.468;2024-03-02T04:31:49;100304.13;;;4.20;64.54
49178;BME280;35016;55.674;37.468;2024-03-02T04:34:16;100305.56;;;4.22;64.68
49178;BME280;35016;55.674;37.468;2024-03-02T04:36:43;100309.28;;;4.21;64.95
49178;BME280;35016;55.674;37.468;2024-03-02T04:39:10;100305.53;;;4.16;64.88
49178;BME280;35016;55.674;37.468;2024-03-02T04:41:37;100304.94;;;4.20;64.26
49178;BME280;35016;55.674;37.468;2024-03-02T04:44:04;100304.72;;;4.15;64.62
49178;BME280;35016;55.674;37.468;2024-03-02T04:46:33;100305.56;;;4.22;64.55
49178;BME280;35016;55.674;37.468;2024-03-02T04:49:01;100307.22;;;4.23;64.95
49178;BME280;35016;55.674;37.468;2024-03-02T04:51:28;100310.75;;;4.24;64.60
49178;BME280;35016;55.674;37.468;2024-03-02T04:53:55;100306.41;;;4.23;64.60
49178;BME280;35016;55.674;37.468;2024-03-02T04:56:23;100308.06;;;4.24;64.44
49178;BME280;35016;55.674;37.468;2024-03-02T04:58:53;100306.41;;;4.23;64.75
49178;BME280;35016;55.674;37.468;2024-03-02T05:01:20;100306.84;;;4.26;64.42
49178;BME280;35016;55.674;37.468;2024-03-02T05:03:47;100300.84;;;4.24;64.71
49178;BME280;35016;55.674;37.468;2024-03-02T05:06:14;100303.75;;;4.29;64.87
49178;BME280;35016;55.674;37.468;2024-03-02T05:08:41;100309.75;;;4.31;64.77
49178;BME280;35016;55.674;37.468;2024-03-02T05:11:09;100308.72;;;4.32;64.72
49178;BME280;35016;55.674;37.468;2024-03-02T05:13:54;100314.75;;;4.34;64.64
49178;BME280;35016;55.674;37.468;2024-03-02T05:16:21;100297.16;;;4.32;64.72
49178;BME280;35016;55.674;37.468;2024-03-02T05:18:49;100304.63;;;4.37;64.77
49178;BME280;35016;55.674;37.468;2024-03-02T05:21:17;100299.06;;;4.38;64.59
49178;BME280;35016;55.674;37.468;2024-03-02T05:23:44;100309.59;;;4.40;64.16
49178;BME280;35016;55.674;37.468;2024-03-02T05:26:11;100311.25;;;4.41;64.70
49178;BME280;35016;55.674;37.468;2024-03-02T05:28:41;100314.56;;;4.43;64.43
49178;BME280;35016;55.674;37.468;2024-03-02T05:31:11;100308.16;;;4.44;63.97
49178;BME280;35016;55.674;37.468;2024-03-02T05:33:38;100313.97;;;4.47;64.53
49178;BME280;35016;55.674;37.468;2024-03-02T05:36:06;100317.28;;;4.49;64.46
49178;BME280;35016;55.674;37.468;2024-03-02T05:38:36;100314.59;;;4.49;64.26
49178;BME280;35016;55.674;37.468;2024-03-02T05:41:03;100316.44;;;4.49;64.13
49178;BME280;35016;55.674;37.468;2024-03-02T05:43:30;100314.41;;;4.51;64.30
49178;BME280;35016;55.674;37.468;2024-03-02T05:45:59;100314.41;;;4.57;63.82
49178;BME280;35016;55.674;37.468;2024-03-02T05:48:26;100314.63;;;4.62;63.49
49178;BME280;35016;55.674;37.468;2024-03-02T05:50:54;100313.44;;;4.65;63.58
49178;BME280;35016;55.674;37.468;2024-03-02T05:53:21;100315.91;;;4.66;63.98
49178;BME280;35016;55.674;37.468;2024-03-02T05:55:48;100311.38;;;4.67;63.77
49178;BME280;35016;55.674;37.468;2024-03-02T05:58:20;100326.25;;;4.70;63.99
49178;BME280;35016;55.674;37.468;2024-03-02T06:01:07;100319.84;;;4.71;63.77
49178;BME280;35016;55.674;37.468;2024-03-02T06:03:35;100317.59;;;4.74;64.00
49178;BME280;35016;55.674;37.468;2024-03-02T06:06:02;100319.25;;;4.75;63.87
49178;BME280;35016;55.674;37.468;2024-03-02T06:08:29;100326.28;;;4.76;63.75
49178;BME280;35016;55.674;37.468;2024-03-02T06:10:59;100321.75;;;4.77;63.84
49178;BME280;35016;55.674;37.468;2024-03-02T06:13:26;100320.50;;;4.79;63.67
49178;BME280;35016;55.674;37.468;2024-03-02T06:15:53;100319.91;;;4.84;63.22
49178;BME280;35016;55.674;37.468;2024-03-02T06:18:24;100326.09;;;4.91;63.65
49178;BME280;35016;55.674;37.468;2024-03-02T06:20:50;100329.88;;;4.96;63.38
49178;BME280;35016;55.674;37.468;2024-03-02T06:23:17;100317.47;;;5.02;63.56
49178;BME280;35016;55.674;37.468;2024-03-02T06:25:45;100326.78;;;5.06;63.22
49178;BME280;35016;55.674;37.468;2024-03-02T06:28:12;100322.03;;;5.15;62.77
49178;BME280;35016;55.674;37.468;2024-03-02T06:30:42;100329.50;;;5.19;63.17
49178;BME280;35016;55.674;37.468;2024-03-02T06:33:10;100325.19;;;5.25;62.82
49178;BME280;35016;55.674;37.468;2024-03-02T06:35:37;100327.47;;;5.28;63.11
49178;BME280;35016;55.674;37.468;2024-03-02T06:38:05;100323.75;;;5.36;62.42
49178;BME280;35016;55.674;37.468;2024-03-02T06:40:33;100323.13;;;5.40;62.22
49178;BME280;35016;55.674;37.468;2024-03-02T06:43:00;100326.00;;;5.45;62.12
49178;BME280;35016;55.674;37.468;2024-03-02T06:45:28;100324.38;;;5.51;62.85
49178;BME280;35016;55.674;37.468;2024-03-02T06:47:57;100327.91;;;5.58;62.65
49178;BME280;35016;55.674;37.468;2024-03-02T06:50:24;100328.53;;;5.60;61.96
49178;BME280;35016;55.674;37.468;2024-03-02T06:52:52;100324.59;;;5.63;62.26
49178;BME280;35016;55.674;37.468;2024-03-02T06:55:19;100321.06;;;5.69;62.19
49178;BME280;35016;55.674;37.468;2024-03-02T06:57:46;100331.44;;;5.78;61.67
49178;BME280;35016;55.674;37.468;2024-03-02T07:00:14;100331.63;;;5.83;61.86
49178;BME280;35016;55.674;37.468;2024-03-02T07:02:41;100338.69;;;5.91;61.80
49178;BME280;35016;55.674;37.468;2024-03-02T07:05:08;100338.06;;;5.96;61.39
49178;BME280;35016;55.674;37.468;2024-03-02T07:07:36;100335.75;;;6.06;61.38
49178;BME280;35016;55.674;37.468;2024-03-02T07:10:05;100330.81;;;6.09;61.72
49178;BME280;35016;55.674;37.468;2024-03-02T07:12:32;100334.09;;;6.18;61.02
49178;BME280;35016;55.674;37.468;2024-03-02T07:14:59;100336.34;;;6.28;61.33
49178;BME280;35016;55.674;37.468;2024-03-02T07:17:32;100332.59;;;6.35;60.74
49178;BME280;35016;55.674;37.468;2024-03-02T07:19:59;100335.69;;;6.45;60.70
49178;BME280;35016;55.674;37.468;2024-03-02T07:22:26;100331.31;;;6.51;60.41
49178;BME280;35016;55.674;37.468;2024-03-02T07:24:53;100336.28;;;6.54;60.12
49178;BME280;35016;55.674;37.468;2024-03-02T07:27:21;100338.97;;;6.54;60.46
49178;BME280;35016;55.674;37.468;2024-03-02T07:29:48;100342.06;;;6.58;60.69
49178;BME280;35016;55.674;37.468;2024-03-02T07:32:16;100333.13;;;6.64;60.19
49178;BME280;35016;55.674;37.468;2024-03-02T07:34:43;100328.34;;;6.72;60.50
49178;BME280;35016;55.674;37.468;2024-03-02T07:37:10;100324.75;;;6.85;60.08
49178;BME280;35016;55.674;37.468;2024-03-02T07:39:37;100319.09;;;6.93;59.88
49178;BME280;35016;55.674;37.468;2024-03-02T07:42:04;100317.84;;;7.02;59.70
49178;BME280;35016;55.674;37.468;2024-03-02T07:44:33;100311.53;;;7.15;59.27
49178;BME280;35016;55.674;37.468;2024-03-02T07:47:00;100314.38;;;7.27;59.44
49178;BME280;35016;55.674;37.468;2024-03-02T07:49:27;100313.22;;;7.41;59.41
49178;BME280;35016;55.674;37.468;2024-03-02T07:51:54;100306.09;;;7.53;58.82
49178;BME280;35016;55.674;37.468;2024-03-02T07:54:22;100317.59;;;7.67;58.77
49178;BME280;35016;55.674;37.468;2024-03-02T07:56:49;100305.84;;;7.80;58.63
49178;BME280;35016;55.674;37.468;2024-03-02T07:59:16;100309.09;;;7.88;58.29
49178;BME280;35016;55.674;37.468;2024-03-02T08:01:43;100312.34;;;7.97;58.09
49178;BME280;35016;55.674;37.468;2024-03-02T08:04:11;100307.84;;;8.09;57.76
49178;BME280;35016;55.674;37.468;2024-03-02T08:06:38;100306.38;;;8.13;57.57
49178;BME280;35016;55.674;37.468;2024-03-02T08:09:05;100298.28;;;8.13;57.10
49178;BME280;35016;55.674;37.468;2024-03-02T08:11:36;100302.25;;;8.11;56.95
49178;BME280;35016;55.674;37.468;2024-03-02T08:14:05;100299.75;;;8.09;56.84
49178;BME280;35016;55.674;37.468;2024-03-02T08:16:32;100303.50;;;8.08;56.75
49178;BME280;35016;55.674;37.468;2024-03-02T08:19:00;100307.84;;;8.09;56.25
49178;BME280;35016;55.674;37.468;2024-03-02T08:21:27;100309.53;;;8.10;56.50
49178;BME280;35016;55.674;37.468;2024-03-02T08:23:58;100308.06;;;8.07;56.48
49178;BME280;35016;55.674;37.468;2024-03-02T08:26:25;100309.56;;;8.03;56.59
49178;BME280;35016;55.674;37.468;2024-03-02T08:28:52;100295.25;;;8.03;56.42
49178;BME280;35016;55.674;37.468;2024-03-02T08:31:19;100302.81;;;7.94;56.36
49178;BME280;35016;55.674;37.468;2024-03-02T08:33:46;100307.53;;;7.99;56.39
49178;BME280;35016;55.674;37.468;2024-03-02T08:36:14;100301.44;;;8.10;56.39
49178;BME280;35016;55.674;37.468;2024-03-02T08:38:42;100305.84;;;8.23;55.95
49178;BME280;35016;55.674;37.468;2024-03-02T08:41:11;100307.28;;;8.25;55.91
49178;BME280;35016;55.674;37.468;2024-03-02T08:43:41;100313.28;;;8.27;55.74
49178;BME280;35016;55.674;37.468;2024-03-02T08:46:09;100309.53;;;8.28;55.53
49178;BME280;35016;55.674;37.468;2024-03-02T08:48:36;100304.94;;;8.29;55.32
49178;BME280;35016;55.674;37.468;2024-03-02T08:51:03;100307.06;;;8.27;55.40
49178;BME280;35016;55.674;37.468;2024-03-02T08:53:33;100305.34;;;8.14;55.57
49178;BME280;35016;55.674;37.468;2024-03-02T08:56:00;100307.47;;;8.05;55.37
49178;BME280;35016;55.674;37.468;2024-03-02T08:58:29;100305.28;;;7.96;55.50
49178;BME280;35016;55.674;37.468;2024-03-02T09:00:56;100303.03;;;7.93;55.59
49178;BME280;35016;55.674;37.468;2024-03-02T09:03:23;100303.72;;;7.88;55.21
49178;BME280;35016;55.674;37.468;2024-03-02T09:05:50;100302.94;;;7.81;55.50
49178;BME280;35016;55.674;37.468;2024-03-02T09:08:20;100299.84;;;7.77;55.06
49178;BME280;35016;55.674;37.468;2024-03-02T09:10:47;100296.50;;;7.82;55.44
49178;BME280;35016;55.674;37.468;2024-03-02T09:13:15;100297.47;;;7.88;55.37
49178;BME280;35016;55.674;37.468;2024-03-02T09:15:42;100290.28;;;7.82;55.38
49178;BME280;35016;55.674;37.468;2024-03-02T09:18:10;100286.63;;;7.69;55.34
49178;BME280;35016;55.674;37.468;2024-03-02T09:20:39;100288.25;;;7.52;55.49
49178;BME280;35016;55.674;37.468;2024-03-02T09:23:06;100283.75;;;7.39;55.37
49178;BME280;35016;55.674;37.468;2024-03-02T09:25:33;100291.75;;;7.28;55.84
49178;BME280;35016;55.674;37.468;2024-03-02T09:28:00;100292.41;;;7.23;55.97
49178;BME280;35016;55.674;37.468;2024-03-02T09:30:27;100294.88;;;7.25;55.68
49178;BME280;35016;55.674;37.468;2024-03-02T09:32:54;100282.81;;;7.27;55.57
49178;BME280;35016;55.674;37.468;2024-03-02T09:35:41;100278.75;;;7.43;55.62
49178;BME280;35016;55.674;37.468;2024-03-02T09:38:08;100281.56;;;7.55;55.67
49178;BME280;35016;55.674;37.468;2024-03-02T09:40:36;100281.53;;;7.61;55.29
49178;BME280;35016;55.674;37.468;2024-03-02T09:43:03;100277.78;;;7.62;55.63
49178;BME280;35016;55.674;37.468;2024-03-02T09:45:31;100285.88;;;7.62;55.52
49178;BME280;35016;55.674;37.468;2024-03-02T09:47:59;100280.91;;;7.59;55.55
49178;BME280;35016;55.674;37.468;2024-03-02T09:50:26;100278.44;;;7.58;55.69
49178;BME280;35016;55.674;37.468;2024-03-02T09:52:54;100288.94;;;7.66;55.65
49178;BME280;35016;55.674;37.468;2024-03-02T09:55:21;100281.78;;;7.78;55.62
49178;BME280;35016;55.674;37.468;2024-03-02T09:57:48;100289.31;;;7.94;55.99
49178;BME280;35016;55.674;37.468;2024-03-02T10:00:17;100280.66;;;8.11;55.69
49178;BME280;35016;55.674;37.468;2024-03-02T10:02:44;100289.28;;;8.19;55.72
49178;BME280;35016;55.674;37.468;2024-03-02T10:05:12;100281.75;;;8.21;55.76
49178;BME280;35016;55.674;37.468;2024-03-02T10:07:40;100289.50;;;8.18;55.71
49178;BME280;35016;55.674;37.468;2024-03-02T10:10:14;100294.91;;;8.18;55.17
49178;BME280;35016;55.674;37.468;2024-03-02T10:12:43;100295.72;;;8.18;55.71
49178;BME280;35016;55.674;37.468;2024-03-02T10:15:10;100291.38;;;8.17;55.69
49178;BME280;35016;55.674;37.468;2024-03-02T10:17:37;100293.78;;;8.25;55.54
49178;BME280;35016;55.674;37.468;2024-03-02T10:20:24;100290.78;;;8.33;54.60
49178;BME280;35016;55.674;37.468;2024-03-02T10:22:52;100285.16;;;8.35;55.47
49178;BME280;35016;55.674;37.468;2024-03-02T10:25:29;100297.03;;;8.52;54.45
49178;BME280;35016;55.674;37.468;2024-03-02T10:28:12;100283.66;;;8.57;55.29
49178;BME280;35016;55.674;37.468;2024-03-02T10:30:40;100284.84;;;8.61;54.95
49178;BME280;35016;55.674;37.468;2024-03-02T10:33:07;100284.38;;;8.64;54.77
49178;BME280;35016;55.674;37.468;2024-03-02T10:35:34;100283.09;;;8.67;54.91
49178;BME280;35016;55.674;37.468;2024-03-02T10:38:06;100301.16;;;8.73;54.49
49178;BME280;35016;55.674;37.468;2024-03-02T10:40:33;100299.19;;;8.80;54.71
49178;BME280;35016;55.674;37.468;2024-03-02T10:43:01;100292.34;;;8.78;54.37
49178;BME280;35016;55.674;37.468;2024-03-02T10:45:32;100293.91;;;8.85;54.16
49178;BME280;35016;55.674;37.468;2024-03-02T10:48:01;100294.16;;;8.95;53.98
49178;BME280;35016;55.674;37.468;2024-03-02T10:50:29;100293.50;;;9.00;54.01
49178;BME280;35016;55.674;37.468;2024-03-02T10:52:57;100293.53;;;9.12;53.80
49178;BME280;35016;55.674;37.468;2024-03-02T10:55:24;100298.97;;;9.23;53.57
49178;BME280;35016;55.674;37.468;2024-03-02T10:57:53;100300.78;;;9.29;53.46
49178;BME280;35016;55.674;37.468;2024-03-02T11:00:26;100303.03;;;9.32;52.99
49178;BME280;35016;55.674;37.468;2024-03-02T11:03:07;100298.44;;;9.33;52.41
49178;BME280;35016;55.674;37.468;2024-03-02T11:05:44;100304.47;;;9.47;52.33
49178;BME280;35016;55.674;37.468;2024-03-02T11:08:13;100302.84;;;9.57;53.02
49178;BME280;35016;55.674;37.468;2024-03-02T11:10:45;100297.31;;;9.64;52.48
49178;BME280;35016;55.674;37.468;2024-03-02T11:13:15;100297.44;;;9.69;52.33
49178;BME280;35016;55.674;37.468;2024-03-02T11:15:43;100289.09;;;9.71;52.29
49178;BME280;35016;55.674;37.468;2024-03-02T11:18:11;100297.66;;;9.79;52.24
49178;BME280;35016;55.674;37.468;2024-03-02T11:20:40;100298.63;;;9.97;52.21
49178;BME280;35016;55.674;37.468;2024-03-02T11:23:09;100295.91;;;10.08;51.81
49178;BME280;35016;55.674;37.468;2024-03-02T11:25:38;100286.38;;;10.06;50.83
49178;BME280;35016;55.674;37.468;2024-03-02T11:28:06;100300.28;;;9.98;51.79
49178;BME280;35016;55.674;37.468;2024-03-02T11:33:10;100290.13;;;9.81;51.65
49178;BME280;35016;55.674;37.468;2024-03-02T11:35:43;100290.25;;;9.75;50.88
49178;BME280;35016;55.674;37.468;2024-03-02T11:38:14;100290.38;;;9.68;51.54
49178;BME280;35016;55.674;37.468;2024-03-02T11:40:41;100289.44;;;9.62;51.82
49178;BME280;35016;55.674;37.468;2024-03-02T11:43:09;100284.22;;;9.49;51.78
49178;BME280;35016;55.674;37.468;2024-03-02T11:45:38;100281.50;;;9.38;51.49
49178;BME280;35016;55.674;37.468;2024-03-02T11:48:14;100274.25;;;9.20;51.56
49178;BME280;35016;55.674;37.468;2024-03-02T11:50:52;100272.13;;;9.10;50.73
49178;BME280;35016;55.674;37.468;2024-03-02T11:53:20;100265.47;;;8.94;51.61
49178;BME280;35016;55.674;37.468;2024-03-02T11:55:49;100278.88;;;8.89;51.75
49178;BME280;35016;55.674;37.468;2024-03-02T11:58:16;100274.75;;;8.87;51.43
49178;BME280;35016;55.674;37.468;2024-03-02T12:00:51;100276.13;;;8.78;51.51
49178;BME280;35016;55.674;37.468;2024-03-02T12:03:22;100264.88;;;8.62;51.48
49178;BME280;35016;55.674;37.468;2024-03-02T12:05:50;100269.22;;;8.63;51.86
49178;BME280;35016;55.674;37.468;2024-03-02T12:08:18;100262.63;;;8.59;51.86
49178;BME280;35016;55.674;37.468;2024-03-02T12:10:59;100272.28;;;8.67;51.50
49178;BME280;35016;55.674;37.468;2024-03-02T12:13:28;100259.56;;;8.56;51.56
49178;BME280;35016;55.674;37.468;2024-03-02T12:15:56;100263.16;;;8.50;51.42
49178;BME280;35016;55.674;37.468;2024-03-02T12:18:24;100259.28;;;8.46;51.48
49178;BME280;35016;55.674;37.468;2024-03-02T12:20:51;100256.66;;;8.39;51.55
49178;BME280;35016;55.674;37.468;2024-03-02T12:23:26;100262.09;;;8.32;51.58
49178;BME280;35016;55.674;37.468;2024-03-02T12:25:53;100263.22;;;8.25;51.79
49178;BME280;35016;55.674;37.468;2024-03-02T12:28:21;100265.78;;;8.20;51.84
49178;BME280;35016;55.674;37.468;2024-03-02T12:30:48;100271.63;;;8.17;51.48
49178;BME280;35016;55.674;37.468;2024-03-02T12:33:16;100264.84;;;8.07;51.89
49178;BME280;35016;55.674;37.468;2024-03-02T12:35:44;100267.19;;;8.04;51.68
49178;BME280;35016;55.674;37.468;2024-03-02T12:38:11;100275.97;;;7.99;51.75
49178;BME280;35016;55.674;37.468;2024-03-02T12:40:39;100265.97;;;8.00;52.13
49178;BME280;35016;55.674;37.468;2024-03-02T12:43:06;100265.03;;;8.13;51.84
49178;BME280;35016;55.674;37.468;2024-03-02T12:45:34;100258.03;;;8.23;51.90
49178;BME280;35016;55.674;37.468;2024-03-02T12:48:04;100265.06;;;8.49;51.64
49178;BME280;35016;55.674;37.468;2024-03-02T12:50:33;100266.59;;;8.75;51.21
49178;BME280;35016;55.674;37.468;2024-03-02T12:53:01;100261.72;;;8.95;50.82
49178;BME280;35016;55.674;37.468;2024-03-02T12:55:28;100255.44;;;9.13;50.54
49178;BME280;35016;55.674;37.468;2024-03-02T12:57:56;100271.59;;;9.31;50.78
49178;BME280;35016;55.674;37.468;2024-03-02T13:00:26;100266.09;;;9.50;50.53
49178;BME280;35016;55.674;37.468;2024-03-02T13:02:53;100268.00;;;9.73;50.54
49178;BME280;35016;55.674;37.468;2024-03-02T13:05:21;100272.84;;;9.94;50.35